createdAt,value
2022-09-01T00:00:22.900Z,17.50
2022-09-01T00:01:22.932Z,17.50
2022-09-01T00:02:24.423Z,17.42
2022-09-01T00:03:22.972Z,17.38
2022-09-01T00:04:23.044Z,17.35
2022-09-01T00:05:23.435Z,17.31
2022-09-01T00:06:23.055Z,17.25
2022-09-01T00:07:24.514Z,17.31
2022-09-01T00:08:23.112Z,17.09
2022-09-01T00:09:23.151Z,17.13
2022-09-01T00:11:23.414Z,17.12
2022-09-01T00:12:24.642Z,17.00
2022-09-01T00:13:23.265Z,17.09
2022-09-01T00:14:29.463Z,17.07
2022-09-01T00:16:23.340Z,17.12
2022-09-01T00:17:23.371Z,17.10
2022-09-01T00:18:23.397Z,17.15
2022-09-01T00:19:23.427Z,17.18
2022-09-01T00:21:23.495Z,17.02
2022-09-01T00:23:23.757Z,17.10
2022-09-01T00:25:23.916Z,17.06
2022-09-01T00:26:24.247Z,17.10
2022-09-01T00:27:30.524Z,17.13
2022-09-01T00:28:23.702Z,17.13
2022-09-01T00:29:23.725Z,17.06
2022-09-01T00:30:23.757Z,17.02
2022-09-01T00:31:23.851Z,17.05
2022-09-01T00:32:23.813Z,17.05
2022-09-01T00:33:23.837Z,17.09
2022-09-01T00:35:24.101Z,17.18
2022-09-01T00:36:23.925Z,17.05
2022-09-01T00:37:23.943Z,17.10
2022-09-01T00:38:23.981Z,17.09
2022-09-01T00:39:23.999Z,16.92
2022-09-01T00:40:24.112Z,16.99
2022-09-01T00:41:24.070Z,17.07
2022-09-01T00:42:24.085Z,17.05
2022-09-01T00:43:24.137Z,16.99
2022-09-01T00:44:24.397Z,16.94
2022-09-01T00:45:24.388Z,17.07
2022-09-01T00:46:24.233Z,17.02
2022-09-01T00:47:24.249Z,16.97
2022-09-01T00:48:24.576Z,17.10
2022-09-01T00:49:24.301Z,17.00
2022-09-01T00:50:24.314Z,16.95
2022-09-01T00:51:24.547Z,16.99
2022-09-01T00:53:24.413Z,16.94
2022-09-01T00:54:24.576Z,16.97
2022-09-01T00:56:24.697Z,16.94
2022-09-01T00:57:24.522Z,16.92
2022-09-01T00:58:24.553Z,16.94
2022-09-01T00:59:24.583Z,16.85
2022-09-01T01:00:24.607Z,16.85
2022-09-01T01:01:24.688Z,16.84
2022-09-01T01:02:24.751Z,16.88
2022-09-01T01:03:24.683Z,16.84
2022-09-01T01:04:24.723Z,16.91
2022-09-01T01:05:24.738Z,16.84
2022-09-01T01:06:24.781Z,16.87
2022-09-01T01:07:25.000Z,16.76
2022-09-01T01:08:24.835Z,16.84
2022-09-01T01:09:24.852Z,16.85
2022-09-01T01:10:24.886Z,16.87
2022-09-01T01:11:24.910Z,16.72
2022-09-01T01:12:24.940Z,16.77
2022-09-01T01:14:25.012Z,16.67
2022-09-01T01:15:25.238Z,16.66
2022-09-01T01:16:25.529Z,16.67
2022-09-01T01:17:25.398Z,16.67
2022-09-01T01:18:25.320Z,16.59
2022-09-01T01:19:25.150Z,16.66
2022-09-01T01:20:25.179Z,16.67
2022-09-01T01:21:25.194Z,16.65
2022-09-01T01:22:25.427Z,16.54
2022-09-01T01:23:25.262Z,16.51
2022-09-01T01:24:25.293Z,16.49
2022-09-01T01:26:25.345Z,16.44
2022-09-01T01:27:25.581Z,16.37
2022-09-01T01:28:25.402Z,16.29
2022-09-01T01:30:25.465Z,16.25
2022-09-01T01:31:28.111Z,16.11
2022-09-01T01:32:25.508Z,16.17
2022-09-01T01:33:25.559Z,16.29
2022-09-01T01:34:25.967Z,16.29
2022-09-01T01:42:28.408Z,16.18
2022-09-01T01:43:26.497Z,16.17
2022-09-01T01:44:25.853Z,16.22
2022-09-01T01:46:26.779Z,16.29
2022-09-01T01:48:25.957Z,16.26
2022-09-01T01:53:26.114Z,16.48
2022-09-01T01:54:26.136Z,16.45
2022-09-01T01:55:27.569Z,16.45
2022-09-01T01:56:26.181Z,16.47
2022-09-01T01:57:26.226Z,16.51
2022-09-01T01:58:26.249Z,16.52
2022-09-01T01:59:26.281Z,16.54
2022-09-01T02:00:30.464Z,16.54
2022-09-01T02:01:26.359Z,16.52
2022-09-01T02:02:26.434Z,16.54
2022-09-01T02:03:26.379Z,16.57
2022-09-01T02:05:26.446Z,16.65
2022-09-01T02:06:26.474Z,16.63
2022-09-01T02:07:26.910Z,16.63
2022-09-01T02:09:24.106Z,16.72
2022-09-01T02:10:24.135Z,16.74
2022-09-01T02:11:24.168Z,16.80
2022-09-01T02:12:24.192Z,16.81
2022-09-01T02:13:24.218Z,16.84
2022-09-01T02:14:24.251Z,16.76
2022-09-01T02:15:24.274Z,16.82
2022-09-01T02:16:24.404Z,16.82
2022-09-01T02:17:24.333Z,16.85
2022-09-01T02:18:24.362Z,16.82
2022-09-01T02:19:24.388Z,16.84
2022-09-01T02:20:27.037Z,16.80
2022-09-01T02:22:06.994Z,16.70
2022-09-01T02:23:07.023Z,16.73
2022-09-01T02:24:07.052Z,16.72
2022-09-01T02:25:07.080Z,16.81
2022-09-01T02:26:22.298Z,16.72
2022-09-01T02:27:07.138Z,16.77
2022-09-01T02:28:07.166Z,16.70
2022-09-01T02:29:07.193Z,16.66
2022-09-01T02:30:07.222Z,16.66
2022-09-01T02:31:07.316Z,16.70
2022-09-01T02:32:07.277Z,16.63
2022-09-01T02:33:10.193Z,16.66
2022-09-01T02:34:07.335Z,16.72
2022-09-01T02:35:07.364Z,16.66
2022-09-01T02:36:07.393Z,16.70
2022-09-01T02:37:07.420Z,16.69
2022-09-01T02:38:07.450Z,16.77
2022-09-01T02:39:08.119Z,16.73
2022-09-01T02:40:07.554Z,16.73
2022-09-01T02:41:07.540Z,16.67
2022-09-01T02:42:07.562Z,16.74
2022-09-01T02:43:07.590Z,16.70
2022-09-01T02:44:07.621Z,16.81
2022-09-01T02:45:07.648Z,16.74
2022-09-01T02:46:07.753Z,16.74
2022-09-01T02:47:07.705Z,16.76
2022-09-01T02:48:07.738Z,16.77
2022-09-01T02:49:07.778Z,16.73
2022-09-01T02:50:07.791Z,16.85
2022-09-01T02:51:07.819Z,16.84
2022-09-01T02:52:07.850Z,16.84
2022-09-01T02:53:07.876Z,16.87
2022-09-01T02:54:07.907Z,16.87
2022-09-01T02:55:07.933Z,16.82
2022-09-01T02:56:07.964Z,16.82
2022-09-01T02:57:07.992Z,16.87
2022-09-01T02:58:08.020Z,16.87
2022-09-01T02:59:08.046Z,16.85
2022-09-01T03:00:08.075Z,16.97
2022-09-01T03:01:08.146Z,16.90
2022-09-01T03:02:08.738Z,16.88
2022-09-01T03:03:08.159Z,16.88
2022-09-01T03:04:08.190Z,16.90
2022-09-01T03:05:08.281Z,16.91
2022-09-01T03:06:08.243Z,16.92
2022-09-01T03:07:08.274Z,16.95
2022-09-01T03:08:08.302Z,16.99
2022-09-01T03:09:08.328Z,17.12
2022-09-01T03:10:55.921Z,17.03
2022-09-01T03:11:55.952Z,16.99
2022-09-01T03:12:55.975Z,16.95
2022-09-01T03:13:56.007Z,17.02
2022-09-01T03:14:56.036Z,17.06
2022-09-01T03:15:56.065Z,17.03
2022-09-01T03:16:56.123Z,17.07
2022-09-01T03:17:56.120Z,17.00
2022-09-01T03:18:56.151Z,17.00
2022-09-01T03:19:56.179Z,16.95
2022-09-01T03:20:56.206Z,16.94
2022-09-01T03:21:56.241Z,16.97
2022-09-01T03:22:56.261Z,16.92
2022-09-01T03:23:56.291Z,16.94
2022-09-01T03:24:56.319Z,16.97
2022-09-01T03:25:56.351Z,16.82
2022-09-01T03:26:56.376Z,16.88
2022-09-01T03:27:56.408Z,16.74
2022-09-01T03:28:56.433Z,16.74
2022-09-01T03:29:56.463Z,16.66
2022-09-01T03:30:56.489Z,16.66
2022-09-01T03:31:56.794Z,16.65
2022-09-01T03:32:56.545Z,16.51
2022-09-01T03:33:56.577Z,16.59
2022-09-01T03:34:56.602Z,16.48
2022-09-01T03:35:56.637Z,16.48
2022-09-01T03:36:56.660Z,16.44
2022-09-01T03:37:56.691Z,16.30
2022-09-01T03:38:56.717Z,16.17
2022-09-01T03:39:58.126Z,16.18
2022-09-01T03:40:56.770Z,16.14
2022-09-01T03:41:56.800Z,16.13
2022-09-01T03:43:56.868Z,16.08
2022-09-01T03:44:57.205Z,16.04
2022-09-01T03:45:56.942Z,15.96
2022-09-01T03:46:56.958Z,16.02
2022-09-01T03:47:56.967Z,15.99
2022-09-01T03:48:56.999Z,16.06
2022-09-01T03:49:57.027Z,15.96
2022-09-01T03:51:44.615Z,15.99
2022-09-01T03:52:44.645Z,15.98
2022-09-01T03:53:44.681Z,15.99
2022-09-01T03:54:44.716Z,15.92
2022-09-01T03:55:44.932Z,15.93
2022-09-01T03:56:45.080Z,15.84
2022-09-01T03:57:44.794Z,15.83
2022-09-01T03:58:44.816Z,15.81
2022-09-01T03:59:44.843Z,15.70
2022-09-01T04:00:48.709Z,15.73
2022-09-01T04:01:44.898Z,15.70
2022-09-01T04:02:44.928Z,15.63
2022-09-01T04:03:44.965Z,15.75
2022-09-01T04:04:45.197Z,15.73
2022-09-01T04:05:45.023Z,15.58
2022-09-01T04:06:45.042Z,15.55
2022-09-01T04:07:45.067Z,15.55
2022-09-01T04:08:45.096Z,15.59
2022-09-01T04:09:45.123Z,15.58
2022-09-01T04:10:45.153Z,15.58
2022-09-01T04:11:46.039Z,15.55
2022-09-01T04:12:45.208Z,15.55
2022-09-01T04:13:45.236Z,15.43
2022-09-01T04:14:45.268Z,15.45
2022-09-01T04:15:45.291Z,15.40
2022-09-01T04:16:45.439Z,15.33
2022-09-01T04:17:45.347Z,15.30
2022-09-01T04:18:45.376Z,15.35
2022-09-01T04:19:45.404Z,15.27
2022-09-01T04:20:45.439Z,15.40
2022-09-01T04:21:45.459Z,15.44
2022-09-01T04:22:45.489Z,15.26
2022-09-01T04:23:45.515Z,15.33
2022-09-01T04:24:45.782Z,15.27
2022-09-01T04:25:45.571Z,15.25
2022-09-01T04:26:45.600Z,15.10
2022-09-01T04:27:45.633Z,15.15
2022-09-01T04:28:45.657Z,15.15
2022-09-01T04:29:45.683Z,15.16
2022-09-01T04:30:45.716Z,15.12
2022-09-01T04:31:45.795Z,15.16
2022-09-01T04:32:45.770Z,15.02
2022-09-01T04:33:45.795Z,15.07
2022-09-01T04:34:45.824Z,15.10
2022-09-01T04:35:45.849Z,14.97
2022-09-01T04:36:45.882Z,15.00
2022-09-01T04:37:45.905Z,15.02
2022-09-01T04:38:45.936Z,15.02
2022-09-01T04:39:45.962Z,15.00
2022-09-01T04:40:46.102Z,14.94
2022-09-01T04:41:46.018Z,14.98
2022-09-01T04:42:46.048Z,14.94
2022-09-01T04:43:46.073Z,14.98
2022-09-01T04:44:46.103Z,14.93
2022-09-01T04:45:46.158Z,14.87
2022-09-01T04:46:46.160Z,14.94
2022-09-01T04:47:46.185Z,14.87
2022-09-01T04:48:46.222Z,14.89
2022-09-01T04:49:46.240Z,14.82
2022-09-01T04:50:46.271Z,14.82
2022-09-01T04:51:48.962Z,14.90
2022-09-01T04:52:46.328Z,14.89
2022-09-01T04:53:46.354Z,14.87
2022-09-01T04:54:46.382Z,14.80
2022-09-01T04:55:46.407Z,14.85
2022-09-01T04:56:46.439Z,14.93
2022-09-01T04:57:46.463Z,14.86
2022-09-01T04:58:46.492Z,14.87
2022-09-01T04:59:46.519Z,15.02
2022-09-01T05:00:46.614Z,14.95
2022-09-01T05:01:46.693Z,14.98
2022-09-01T05:02:46.604Z,15.04
2022-09-01T05:03:46.630Z,15.02
2022-09-01T05:04:46.661Z,14.97
2022-09-01T05:05:46.685Z,15.02
2022-09-01T05:06:46.717Z,15.07
2022-09-01T05:07:46.743Z,15.05
2022-09-01T05:08:46.771Z,15.13
2022-09-01T05:09:46.798Z,15.19
2022-09-01T05:10:46.828Z,15.25
2022-09-01T05:11:46.855Z,15.18
2022-09-01T05:12:46.884Z,15.26
2022-09-01T05:13:46.909Z,15.30
2022-09-01T05:14:46.940Z,15.26
2022-09-01T05:15:46.967Z,15.30
2022-09-01T05:16:47.121Z,15.33
2022-09-01T05:17:47.024Z,15.30
2022-09-01T05:18:47.051Z,15.33
2022-09-01T05:19:47.080Z,15.34
2022-09-01T05:20:47.108Z,15.38
2022-09-01T05:21:47.134Z,15.33
2022-09-01T05:22:47.166Z,15.38
2022-09-01T05:23:47.189Z,15.33
2022-09-01T05:24:47.220Z,15.30
2022-09-01T05:25:47.246Z,15.35
2022-09-01T05:26:47.277Z,15.26
2022-09-01T05:27:47.302Z,15.30
2022-09-01T05:28:47.332Z,15.30
2022-09-01T05:29:47.363Z,15.33
2022-09-01T05:30:47.407Z,15.33
2022-09-01T05:31:50.383Z,15.34
2022-09-01T05:32:47.445Z,15.31
2022-09-01T05:33:47.472Z,15.35
2022-09-01T05:34:47.503Z,15.34
2022-09-01T05:35:47.528Z,15.38
2022-09-01T05:36:47.557Z,15.35
2022-09-01T05:37:47.582Z,15.40
2022-09-01T05:38:47.614Z,15.37
2022-09-01T05:39:47.639Z,15.40
2022-09-01T05:40:47.736Z,15.45
2022-09-01T05:41:47.694Z,15.43
2022-09-01T05:42:47.725Z,15.60
2022-09-01T05:43:47.752Z,15.62
2022-09-01T05:44:47.784Z,15.71
2022-09-01T05:46:05.643Z,15.80
2022-09-01T05:46:47.903Z,15.86
2022-09-01T05:47:47.864Z,15.95
2022-09-01T05:48:47.895Z,16.00
2022-09-01T05:49:47.921Z,16.04
2022-09-01T05:50:47.952Z,16.02
2022-09-01T05:51:50.886Z,16.21
2022-09-01T05:52:48.010Z,16.42
2022-09-01T05:53:48.035Z,16.54
2022-09-01T05:54:48.072Z,16.69
2022-09-01T05:55:48.091Z,16.77
2022-09-01T05:56:48.125Z,17.03
2022-09-01T05:57:48.152Z,17.21
2022-09-01T05:59:48.206Z,17.52
2022-09-01T06:00:48.235Z,17.50
2022-09-01T06:01:50.459Z,17.63
2022-09-01T06:02:48.488Z,17.81
2022-09-01T06:04:30.871Z,18.01
2022-09-01T06:05:30.903Z,18.27
2022-09-01T06:06:43.713Z,18.50
2022-09-01T06:07:30.959Z,18.59
2022-09-01T06:08:30.986Z,18.65
2022-09-01T06:09:31.018Z,18.75
2022-09-01T06:10:31.047Z,18.86
2022-09-01T06:11:31.076Z,18.76
2022-09-01T06:12:34.129Z,18.72
2022-09-01T06:13:31.134Z,18.61
2022-09-01T06:14:31.162Z,18.50
2022-09-01T06:15:31.192Z,18.53
2022-09-01T06:16:31.330Z,18.53
2022-09-01T06:17:34.673Z,18.65
2022-09-01T06:18:31.329Z,18.94
2022-09-01T06:19:36.186Z,18.87
2022-09-01T06:20:31.336Z,18.82
2022-09-01T06:21:31.368Z,18.75
2022-09-01T06:22:31.394Z,18.63
2022-09-01T06:23:31.426Z,18.71
2022-09-01T06:24:31.453Z,18.71
2022-09-01T06:25:31.502Z,18.76
2022-09-01T06:26:31.513Z,18.79
2022-09-01T06:27:31.542Z,18.76
2022-09-01T06:28:31.571Z,18.68
2022-09-01T06:29:31.602Z,18.61
2022-09-01T06:30:31.630Z,18.50
2022-09-01T06:31:31.733Z,18.56
2022-09-01T06:32:31.688Z,18.65
2022-09-01T06:33:31.720Z,18.57
2022-09-01T06:34:31.747Z,18.60
2022-09-01T06:35:31.778Z,18.57
2022-09-01T06:36:34.920Z,18.63
2022-09-01T06:37:31.838Z,18.63
2022-09-01T06:38:31.867Z,18.66
2022-09-01T06:39:31.896Z,18.71
2022-09-01T06:40:31.981Z,18.74
2022-09-01T06:41:31.956Z,18.78
2022-09-01T06:42:31.982Z,18.86
2022-09-01T06:43:32.014Z,18.79
2022-09-01T06:44:32.041Z,18.91
2022-09-01T06:45:32.070Z,19.00
2022-09-01T06:46:32.844Z,19.05
2022-09-01T06:47:32.130Z,19.19
2022-09-01T06:48:32.158Z,19.17
2022-09-01T06:49:32.189Z,19.42
2022-09-01T06:51:32.250Z,19.61
2022-09-01T06:53:32.097Z,19.64
2022-09-01T06:53:32.833Z,19.67
2022-09-01T06:54:32.336Z,19.70
2022-09-01T06:55:32.367Z,19.79
2022-09-01T06:56:32.589Z,19.82
2022-09-01T06:58:32.465Z,20.02
2022-09-01T07:01:32.891Z,20.20
2022-09-01T07:02:33.830Z,20.20
2022-09-01T07:04:32.648Z,20.20
2022-09-01T07:08:33.178Z,20.41
2022-09-01T07:09:47.197Z,20.58
2022-09-01T07:10:33.443Z,20.71
2022-09-01T07:17:33.667Z,21.12
2022-09-01T07:23:46.198Z,21.51
2022-09-01T07:26:00.344Z,21.41
2022-09-01T07:26:33.336Z,21.38
2022-09-01T07:27:36.122Z,21.40
2022-09-01T07:29:33.435Z,21.55
2022-09-01T07:30:33.470Z,21.77
2022-09-01T07:31:49.482Z,21.86
2022-09-01T07:32:48.972Z,22.05
2022-09-01T07:33:53.899Z,22.11
2022-09-01T07:35:33.628Z,22.05
2022-09-01T07:39:48.443Z,22.18
2022-09-01T07:42:55.812Z,20.10
2022-09-01T07:42:56.765Z,21.51
2022-09-01T07:44:33.939Z,22.27
2022-09-01T07:45:33.968Z,22.36
2022-09-01T07:46:37.511Z,22.36
2022-09-01T07:48:36.460Z,22.64
2022-09-01T07:49:52.608Z,22.71
2022-09-01T07:51:35.077Z,22.61
2022-09-01T07:51:36.061Z,22.66
2022-09-01T07:54:34.279Z,23.04
2022-09-01T07:55:34.326Z,23.16
2022-09-01T07:56:39.833Z,23.29
2022-09-01T07:57:34.370Z,23.32
2022-09-01T07:58:34.405Z,23.24
2022-09-01T07:59:34.438Z,23.18
2022-09-01T08:00:34.472Z,23.14
2022-09-01T08:01:34.571Z,23.19
2022-09-01T08:02:34.584Z,23.35
2022-09-01T08:03:35.186Z,23.32
2022-09-01T08:04:34.640Z,23.55
2022-09-01T08:05:34.643Z,23.50
2022-09-01T08:07:51.633Z,23.63
2022-09-01T08:08:35.879Z,23.67
2022-09-01T08:09:37.220Z,23.67
2022-09-01T08:10:36.856Z,23.72
2022-09-01T08:12:28.874Z,23.79
2022-09-01T08:14:22.684Z,23.67
2022-09-01T08:15:40.448Z,23.81
2022-09-01T08:19:22.862Z,23.87
2022-09-01T08:20:22.693Z,23.84
2022-09-01T08:23:49.180Z,24.33
2022-09-01T08:24:49.218Z,24.14
2022-09-01T08:25:49.252Z,24.08
2022-09-01T08:27:49.324Z,24.37
2022-09-01T08:28:55.824Z,24.36
2022-09-01T08:30:52.776Z,24.33
2022-09-01T08:31:53.578Z,24.30
2022-09-01T08:32:49.499Z,24.40
2022-09-01T08:33:49.938Z,24.42
2022-09-01T08:37:32.204Z,24.46
2022-09-01T08:38:32.243Z,24.54
2022-09-01T08:39:32.279Z,24.78
2022-09-01T08:41:05.576Z,25.11
2022-09-01T08:42:14.923Z,25.41
2022-09-01T08:43:19.511Z,25.49
2022-09-01T08:44:14.988Z,25.52
2022-09-01T08:45:48.238Z,25.51
2022-09-01T08:46:15.111Z,25.60
2022-09-01T08:47:15.692Z,25.70
2022-09-01T08:55:49.479Z,25.96
2022-09-01T08:56:15.446Z,25.99
2022-09-01T08:57:15.484Z,26.09
2022-09-01T08:59:16.082Z,26.37
2022-09-01T09:00:15.951Z,26.38
2022-09-01T09:01:17.758Z,26.26
2022-09-01T09:05:16.101Z,26.06
2022-09-01T09:06:15.828Z,26.07
2022-09-01T09:07:15.865Z,26.17
2022-09-01T09:08:15.904Z,26.27
2022-09-01T09:10:15.978Z,26.76
2022-09-01T09:11:16.018Z,27.01
2022-09-01T09:12:16.518Z,27.00
2022-09-01T09:13:16.163Z,26.75
2022-09-01T09:14:16.146Z,26.75
2022-09-01T09:16:17.282Z,27.06
2022-09-01T09:19:16.364Z,26.97
2022-09-01T09:20:16.584Z,27.08
2022-09-01T09:53:03.161Z,29.84
2022-09-01T10:12:04.772Z,26.97
2022-09-01T10:13:04.605Z,26.71
2022-09-01T10:15:05.533Z,26.27
2022-09-01T10:19:01.650Z,28.95
2022-09-01T10:20:01.885Z,29.33
2022-09-01T10:21:01.984Z,29.29
2022-09-01T10:22:01.755Z,29.58
2022-09-01T10:23:03.668Z,29.84
2022-09-01T10:24:17.864Z,30.10
2022-09-01T10:25:01.856Z,30.25
2022-09-01T10:28:49.593Z,29.36
2022-09-01T10:29:49.967Z,29.33
2022-09-01T10:30:42.987Z,29.58
2022-09-01T10:31:42.977Z,30.10
2022-09-01T10:32:50.773Z,29.70
2022-09-01T10:33:42.997Z,29.70
2022-09-01T10:34:43.029Z,30.09
2022-09-01T10:35:43.066Z,30.25
2022-09-01T10:36:47.056Z,30.54
2022-09-01T10:37:43.338Z,30.93
2022-09-01T10:38:50.560Z,30.99
2022-09-01T11:00:34.795Z,30.66
2022-09-01T11:01:11.217Z,29.97
2022-09-01T11:02:25.018Z,30.24
2022-09-01T11:04:07.776Z,30.64
2022-09-01T11:05:07.792Z,30.59
2022-09-01T11:06:14.892Z,30.42
2022-09-01T11:11:27.058Z,28.48
2022-09-01T11:12:29.886Z,28.08
2022-09-01T11:13:27.527Z,28.02
2022-09-01T11:14:27.180Z,27.89
2022-09-01T11:15:27.193Z,27.46
2022-09-01T11:16:46.688Z,27.41
2022-09-01T11:17:27.285Z,27.61
2022-09-01T11:18:27.555Z,27.55
2022-09-01T11:19:27.477Z,27.45
2022-09-01T11:20:27.365Z,27.33
2022-09-01T11:21:27.397Z,27.41
2022-09-01T11:22:27.434Z,27.28
2022-09-01T11:23:27.907Z,27.27
2022-09-01T11:24:27.538Z,27.30
2022-09-01T11:25:38.835Z,27.41
2022-09-01T11:26:27.569Z,27.38
2022-09-01T11:27:27.606Z,27.24
2022-09-01T11:28:27.638Z,27.16
2022-09-01T11:29:27.670Z,27.15
2022-09-01T11:30:27.702Z,27.16
2022-09-01T11:31:27.862Z,27.12
2022-09-01T11:32:27.772Z,27.00
2022-09-01T11:33:27.804Z,26.82
2022-09-01T11:34:30.474Z,26.76
2022-09-01T11:35:27.870Z,26.71
2022-09-01T11:36:27.905Z,26.56
2022-09-01T11:37:31.975Z,26.42
2022-09-01T11:38:27.970Z,26.37
2022-09-01T11:39:28.000Z,26.35
2022-09-01T11:40:32.652Z,26.45
2022-09-01T11:41:28.068Z,26.53
2022-09-01T11:42:28.101Z,26.49
2022-09-01T11:44:01.345Z,26.57
2022-09-01T11:44:28.171Z,26.59
2022-09-01T11:46:01.449Z,26.53
2022-09-01T11:46:28.238Z,26.50
2022-09-01T11:47:28.468Z,26.41
2022-09-01T11:49:10.853Z,26.35
2022-09-01T11:50:10.886Z,26.30
2022-09-01T11:51:14.702Z,26.20
2022-09-01T11:52:10.950Z,26.12
2022-09-01T11:53:10.982Z,26.09
2022-09-01T11:54:11.016Z,26.01
2022-09-01T11:55:11.049Z,26.06
2022-09-01T11:56:11.083Z,25.99
2022-09-01T11:57:11.114Z,25.93
2022-09-01T12:02:20.489Z,25.64
2022-09-01T12:03:20.984Z,25.70
2022-09-01T12:04:20.431Z,25.66
2022-09-01T12:05:20.465Z,25.48
2022-09-01T12:06:20.496Z,25.45
2022-09-01T12:07:20.538Z,25.48
2022-09-01T12:08:22.960Z,25.47
2022-09-01T12:09:20.596Z,25.47
2022-09-01T12:10:20.624Z,25.51
2022-09-01T12:12:20.692Z,25.62
2022-09-01T12:13:20.792Z,25.64
2022-09-01T12:14:20.756Z,25.67
2022-09-01T12:15:20.788Z,25.82
2022-09-01T12:16:20.822Z,25.76
2022-09-01T12:17:21.015Z,25.81
2022-09-01T12:18:20.934Z,25.93
2022-09-01T12:19:20.964Z,25.93
2022-09-01T12:20:24.311Z,25.91
2022-09-01T12:21:20.980Z,26.16
2022-09-01T12:22:21.012Z,26.11
2022-09-01T12:23:21.151Z,26.20
2022-09-01T12:24:21.079Z,26.34
2022-09-01T12:25:21.109Z,26.35
2022-09-01T12:26:21.145Z,26.23
2022-09-01T12:27:21.171Z,26.12
2022-09-01T12:28:21.206Z,25.99
2022-09-01T12:29:21.236Z,26.17
2022-09-01T12:30:21.270Z,26.19
2022-09-01T12:31:21.355Z,26.24
2022-09-01T12:32:21.367Z,26.26
2022-09-01T12:33:23.370Z,26.17
2022-09-01T12:34:21.399Z,26.12
2022-09-01T12:35:21.433Z,26.09
2022-09-01T12:36:21.466Z,25.86
2022-09-01T12:37:21.493Z,25.78
2022-09-01T12:38:21.759Z,25.60
2022-09-01T12:39:21.607Z,25.54
2022-09-01T12:40:21.610Z,25.57
2022-09-01T12:42:21.653Z,25.74
2022-09-01T12:43:22.025Z,25.79
2022-09-01T12:44:21.919Z,25.81
2022-09-01T12:46:21.863Z,25.64
2022-09-01T12:47:21.814Z,25.57
2022-09-01T12:48:21.845Z,25.63
2022-09-01T12:49:21.878Z,25.60
2022-09-01T12:50:21.908Z,25.54
2022-09-01T12:52:21.974Z,25.44
2022-09-01T12:53:22.228Z,25.49
2022-09-01T12:54:22.036Z,25.44
2022-09-01T12:56:22.100Z,25.47
2022-09-01T13:07:21.439Z,26.87
2022-09-01T13:08:21.458Z,27.00
2022-09-01T13:09:21.486Z,27.11
2022-09-01T13:10:22.785Z,27.24
2022-09-01T13:11:21.551Z,27.21
2022-09-01T13:12:21.585Z,27.13
2022-09-01T13:13:21.858Z,26.96
2022-09-01T13:14:21.649Z,26.91
2022-09-01T13:15:21.679Z,26.89
2022-09-01T13:16:21.758Z,26.74
2022-09-01T13:17:21.745Z,26.76
2022-09-01T13:18:21.979Z,26.71
2022-09-01T13:19:27.703Z,26.72
2022-09-01T13:20:21.841Z,26.72
2022-09-01T13:21:21.871Z,26.54
2022-09-01T13:22:21.905Z,26.42
2022-09-01T13:23:22.083Z,26.42
2022-09-01T13:33:23.402Z,26.09
2022-09-01T13:34:24.247Z,26.09
2022-09-01T13:35:22.332Z,26.12
2022-09-01T13:38:22.415Z,25.96
2022-09-01T13:39:22.994Z,26.00
2022-09-01T13:40:22.538Z,25.97
2022-09-01T13:41:22.511Z,25.99
2022-09-01T13:42:22.837Z,26.03
2022-09-01T13:43:22.775Z,26.06
2022-09-01T13:44:22.609Z,26.11
2022-09-01T13:45:22.658Z,26.16
2022-09-01T13:46:22.671Z,26.22
2022-09-01T13:47:30.566Z,26.17
2022-09-01T13:48:22.737Z,26.38
2022-09-01T13:50:24.223Z,26.45
2022-09-01T13:51:22.834Z,26.34
2022-09-01T13:52:22.898Z,26.34
2022-09-01T13:53:22.892Z,26.47
2022-09-01T13:54:22.925Z,26.42
2022-09-01T13:55:22.980Z,26.38
2022-09-01T13:56:23.010Z,26.37
2022-09-01T13:57:23.053Z,26.45
2022-09-01T13:58:23.080Z,26.47
2022-09-01T13:59:23.115Z,26.44
2022-09-01T14:01:10.987Z,26.59
2022-09-01T14:02:10.905Z,26.42
2022-09-01T14:03:10.928Z,26.34
2022-09-01T14:04:10.986Z,26.27
2022-09-01T14:05:10.993Z,26.35
2022-09-01T14:06:11.026Z,26.41
2022-09-01T14:07:11.260Z,26.37
2022-09-01T14:08:11.090Z,26.45
2022-09-01T14:09:13.465Z,26.54
2022-09-01T14:10:11.155Z,26.56
2022-09-01T14:11:53.735Z,26.52
2022-09-01T14:12:53.770Z,26.61
2022-09-01T14:13:53.804Z,26.57
2022-09-01T14:15:53.893Z,26.52
2022-09-01T14:16:53.900Z,26.44
2022-09-01T14:17:53.930Z,26.31
2022-09-01T14:18:53.963Z,26.24
2022-09-01T14:19:53.993Z,26.26
2022-09-01T14:20:54.028Z,26.24
2022-09-01T14:21:54.057Z,26.23
2022-09-01T14:22:54.092Z,26.23
2022-09-01T14:23:54.209Z,26.24
2022-09-01T14:24:54.158Z,26.22
2022-09-01T14:25:54.183Z,26.12
2022-09-01T14:26:54.215Z,26.11
2022-09-01T14:27:54.247Z,26.19
2022-09-01T14:28:54.481Z,26.20
2022-09-01T14:29:54.931Z,26.37
2022-09-01T14:31:33.836Z,26.56
2022-09-01T14:32:33.871Z,26.71
2022-09-01T14:33:33.901Z,26.75
2022-09-01T14:34:33.934Z,26.82
2022-09-01T14:35:34.273Z,26.96
2022-09-01T14:36:34.000Z,27.00
2022-09-01T14:37:34.029Z,27.05
2022-09-01T14:38:34.061Z,27.16
2022-09-01T14:39:34.095Z,27.18
2022-09-01T14:40:34.172Z,27.15
2022-09-01T14:41:34.157Z,27.16
2022-09-01T14:42:34.192Z,27.21
2022-09-01T14:43:34.224Z,27.28
2022-09-01T14:44:34.256Z,27.21
2022-09-01T14:45:34.300Z,27.36
2022-09-01T14:46:34.651Z,27.37
2022-09-01T14:47:34.351Z,27.41
2022-09-01T14:48:34.384Z,27.37
2022-09-01T14:49:34.415Z,27.38
2022-09-01T14:50:34.448Z,27.41
2022-09-01T14:52:34.517Z,27.55
2022-09-01T14:53:34.546Z,27.57
2022-09-01T14:54:34.579Z,27.65
2022-09-01T14:55:34.609Z,27.45
2022-09-01T14:56:34.643Z,27.37
2022-09-01T14:57:37.007Z,27.37
2022-09-01T14:58:34.708Z,27.18
2022-09-01T14:59:34.737Z,27.15
2022-09-01T15:00:34.822Z,27.11
2022-09-01T15:02:22.369Z,26.69
2022-09-01T15:03:23.000Z,26.57
2022-09-01T15:04:22.432Z,26.57
2022-09-01T15:05:22.467Z,26.69
2022-09-01T15:06:22.501Z,26.69
2022-09-01T15:07:22.537Z,26.71
2022-09-01T15:08:23.903Z,26.60
2022-09-01T15:09:22.609Z,26.68
2022-09-01T15:10:24.689Z,26.64
2022-09-01T15:18:22.888Z,26.17
2022-09-01T15:19:22.916Z,26.20
2022-09-01T15:20:22.949Z,26.24
2022-09-01T15:21:22.980Z,26.23
2022-09-01T15:22:23.010Z,26.24
2022-09-01T15:23:23.046Z,26.22
2022-09-01T15:24:23.072Z,26.07
2022-09-01T15:25:23.120Z,26.11
2022-09-01T15:26:23.147Z,26.04
2022-09-01T15:27:23.170Z,26.11
2022-09-01T15:28:23.200Z,26.06
2022-09-01T15:29:23.233Z,26.01
2022-09-01T15:30:23.263Z,25.99
2022-09-01T15:31:32.643Z,25.97
2022-09-01T15:32:27.928Z,25.96
2022-09-01T15:33:23.361Z,25.93
2022-09-01T15:34:23.390Z,25.91
2022-09-01T15:35:23.429Z,25.93
2022-09-01T15:36:23.454Z,25.94
2022-09-01T15:37:23.493Z,25.85
2022-09-01T15:38:28.374Z,25.97
2022-09-01T15:39:23.550Z,25.88
2022-09-01T15:40:23.605Z,25.85
2022-09-01T15:41:23.614Z,26.01
2022-09-01T15:42:23.644Z,25.91
2022-09-01T15:43:23.678Z,25.93
2022-09-01T15:44:23.712Z,25.94
2022-09-01T15:45:23.740Z,25.85
2022-09-01T15:46:23.835Z,25.85
2022-09-01T15:47:23.804Z,25.75
2022-09-01T15:48:23.842Z,25.71
2022-09-01T15:49:23.868Z,25.70
2022-09-01T15:50:23.906Z,25.79
2022-09-01T15:51:23.942Z,25.78
2022-09-01T15:52:23.959Z,25.64
2022-09-01T15:53:24.409Z,25.74
2022-09-01T15:54:27.131Z,25.69
2022-09-01T15:57:24.131Z,25.64
2022-09-01T16:00:06.735Z,25.51
2022-09-01T16:01:06.812Z,25.44
2022-09-01T16:02:06.903Z,25.41
2022-09-01T16:03:06.831Z,25.33
2022-09-01T16:04:06.861Z,25.30
2022-09-01T16:05:06.897Z,25.30
2022-09-01T16:06:06.926Z,25.32
2022-09-01T16:07:06.955Z,25.24
2022-09-01T16:08:06.986Z,25.26
2022-09-01T16:09:07.023Z,25.12
2022-09-01T16:10:07.049Z,25.17
2022-09-01T16:11:07.085Z,25.08
2022-09-01T16:12:07.315Z,25.08
2022-09-01T16:13:07.148Z,25.07
2022-09-01T16:15:07.216Z,24.96
2022-09-01T16:17:07.490Z,24.90
2022-09-01T16:33:08.398Z,24.63
2022-09-01T16:34:07.809Z,24.61
2022-09-01T16:35:07.838Z,24.58
2022-09-01T16:36:07.869Z,24.67
2022-09-01T16:37:07.902Z,24.63
2022-09-01T16:38:07.932Z,24.77
2022-09-01T16:39:07.964Z,24.87
2022-09-01T16:40:10.266Z,24.82
2022-09-01T16:41:08.030Z,24.96
2022-09-01T16:42:08.058Z,25.01
2022-09-01T16:43:08.091Z,25.15
2022-09-01T16:44:08.325Z,25.24
2022-09-01T16:45:08.543Z,25.23
2022-09-01T16:47:08.620Z,25.47
2022-09-01T16:48:08.250Z,25.41
2022-09-01T16:50:08.312Z,25.49
2022-09-01T16:51:08.344Z,25.54